Thunder radar more information blitzortung!


Radar de pluja more information rain snow radar


Visita la nostra xarxa de llocs de meteo:

Template documentation
and downloads

And another site



No particular awareness of the weather is required.    There are no Weather-warnings

Pagina Historial Weather Underground text

Diari Resum Agost 8, 2017 Unitats:  Mètric    Imperial   Tant
« Previous Dia
SegĂźent Dia »
Diari Setmana Mensual Anual Personalitzada
  Maxima: Minima: Media:
Temperatura: -17.8 °C -6.9 °C -4.1 °C
Punt de rosada: -17.8 °C -10.3 °C -7.9 °C
Humitat: Humidity % 50 % 66 %
Wind Speed: 0 km/h 0 km/h 12.9 km/h
RĂ fegues de vent: 0 km/h - -
Vent:- - East
Pression baro: 0 hPa 34097 hPa -
Precipitacions: 0 mm    
Historical Graphs
 
 
Dades de taula per Agost 8, 2017
Temps Temperatura Punt de rosada Pression baro Vent Wind Speed RĂ fegues de vent Humitat Rainfall Rate (Hourly)
-17.8 °C -17.8 °C 0 hPa Calm     Humidity % 0 mm
00:03 -3.9 °C -7.1 °C 34198.6 hPa North 9 km/h 9 km/h 70 % 0 mm
00:05 -3.9 °C -6.2 °C 34130.9 hPa North 5.1 km/h 10.3 km/h 78 % 0 mm
00:08 -3.9 °C -7.1 °C 34198.6 hPa NNE 6 km/h 6 km/h 70 % 0 mm
00:15 -3.9 °C -6.1 °C 34130.9 hPa NNE 7.7 km/h 15.6 km/h 79 % 0 mm
00:25 -3.9 °C -6 °C 34097 hPa NE 5.1 km/h 7.7 km/h 80 % 0 mm
00:35 -3.9 °C -5.9 °C 34097 hPa NE 2.6 km/h 7.7 km/h 80 % 0 mm
00:45 -3.9 °C -6.1 °C 34097 hPa NE 5.1 km/h 7.7 km/h 79 % 0 mm
00:55 -3.8 °C -5.9 °C 34097 hPa NE 5.1 km/h 10.3 km/h 80 % 0 mm
01:05 -3.8 °C -5.9 °C 34097 hPa NE 5.1 km/h 7.7 km/h 80 % 0 mm
01:15 -3.8 °C -5.9 °C 34097 hPa NE 2.6 km/h 5.1 km/h 80 % 0 mm
01:25 -3.8 °C -5.9 °C 34097 hPa NE 2.6 km/h 7.7 km/h 80 % 0 mm
01:35 -3.8 °C -5.8 °C 34097 hPa NE 5.1 km/h 5.1 km/h 80 % 0 mm
01:45 -3.8 °C -5.8 °C 34097 hPa ENE 5.1 km/h 7.7 km/h 80 % 0 mm
01:55 -3.8 °C -6 °C 34097 hPa ENE 5.1 km/h 5.1 km/h 79 % 0 mm
02:05 -3.8 °C -6 °C 34097 hPa NE 2.6 km/h 7.7 km/h 79 % 0 mm
02:15 -3.9 °C -6.2 °C 34097 hPa NE 7.7 km/h 7.7 km/h 78 % 0 mm
02:25 -3.9 °C -6.3 °C 34130.9 hPa NNE 2.6 km/h 5.1 km/h 77 % 0 mm
02:35 -4 °C -6.4 °C 34130.9 hPa North 2.6 km/h 7.7 km/h 77 % 0 mm
02:45 -4 °C -6.5 °C 34130.9 hPa NNE 5.1 km/h 5.1 km/h 76 % 0 mm
02:55 -3.9 °C -6.4 °C 34130.9 hPa NE 5.1 km/h 7.7 km/h 76 % 0 mm
03:05 -3.9 °C -6.6 °C 34130.9 hPa NNE 2.6 km/h 5.1 km/h 74 % 0 mm
03:15 -3.9 °C -6.8 °C 34130.9 hPa NNE 7.7 km/h 10.3 km/h 73 % 0 mm
03:25 -3.9 °C -6.8 °C 34130.9 hPa NNE 7.7 km/h 10.3 km/h 73 % 0 mm
03:35 -3.7 °C -6.6 °C 34130.9 hPa NE 7.7 km/h 7.7 km/h 73 % 0 mm
03:45 -3.7 °C -6.6 °C 34130.9 hPa NE 5.1 km/h 5.1 km/h 73 % 0 mm
03:55 -3.3 °C -6.2 °C 34130.9 hPa NE 2.6 km/h 5.1 km/h 73 % 0 mm
04:05 -3.2 °C -6.2 °C 34130.9 hPa ENE 2.6 km/h 7.7 km/h 72 % 0 mm
04:15 -2.9 °C -6 °C 34130.9 hPa NE 2.6 km/h 7.7 km/h 72 % 0 mm
04:25 -2.7 °C -5.9 °C 34130.9 hPa NNE 5.1 km/h 5.1 km/h 71 % 0 mm
09:28 -2.8 °C -5.7 °C 34130.9 hPa ENE 6.8 km/h 6.8 km/h 73 % 0 mm
09:29 -2.9 °C -5.8 °C 34130.9 hPa East 9.8 km/h 9.8 km/h 73 % 0 mm
09:34 -2.9 °C -5.7 °C 34130.9 hPa NNE 9 km/h 9 km/h 74 % 0 mm
09:39 -2.9 °C -5.7 °C 34130.9 hPa NE 11.9 km/h 11.9 km/h 74 % 0 mm
09:44 -2.9 °C -5.7 °C 34130.9 hPa NNE 9.3 km/h 9.3 km/h 74 % 0 mm
09:49 -2.8 °C -5.7 °C 34130.9 hPa ENE 9 km/h 9 km/h 73 % 0 mm
09:54 -2.7 °C -5.6 °C 34130.9 hPa ESE 9 km/h 9 km/h 73 % 0 mm
09:59 -2.7 °C -5.6 °C 34130.9 hPa ENE 6.3 km/h 6.3 km/h 73 % 0 mm
10:04 -2.8 °C -5.7 °C 34130.9 hPa ENE 9 km/h 9 km/h 73 % 0 mm
10:09 -2.8 °C -5.6 °C 34130.9 hPa East 6 km/h 6 km/h 74 % 0 mm
10:14 -2.8 °C -5.7 °C 34130.9 hPa NE 7.6 km/h 7.6 km/h 73 % 0 mm
10:19 -2.7 °C -5.7 °C 34130.9 hPa East 5.1 km/h 5.1 km/h 73 % 0 mm
10:24 -2.6 °C -5.5 °C 34130.9 hPa ENE 11.9 km/h 11.9 km/h 73 % 0 mm
10:29 -2.6 °C -5.6 °C 34130.9 hPa Calm     72 % 0 mm
10:34 -2.1 °C -5.2 °C 34164.7 hPa ENE 9 km/h 9 km/h 72 % 0 mm
10:39 -1.9 °C -5.1 °C 34164.7 hPa ESE 8 km/h 8 km/h 71 % 0 mm
10:44 -2.1 °C -5.3 °C 34164.7 hPa WSW 4.2 km/h   71 % 0 mm
10:49 -2.2 °C -5.3 °C 34164.7 hPa NNW 9 km/h 9 km/h 72 % 0 mm
10:54 -2.5 °C -6.1 °C 34164.7 hPa NE 9 km/h 9 km/h 68 % 0 mm
10:59 -2.6 °C -6.4 °C 34164.7 hPa NE 9 km/h 9 km/h 66 % 0 mm
11:04 -2.6 °C -6.6 °C 34164.7 hPa ESE 6 km/h 6 km/h 65 % 0 mm
11:09 -2.7 °C -6.6 °C 34164.7 hPa East 14 km/h 14 km/h 65 % 0 mm
11:14 -3.1 °C -6.2 °C 34164.7 hPa East 15 km/h 15 km/h 71 % 0 mm
11:19 -3.4 °C -6.4 °C 34164.7 hPa ENE 20.9 km/h 20.9 km/h 72 % 0 mm
11:24 -3.6 °C -6.6 °C 34164.7 hPa East 20.9 km/h 20.9 km/h 72 % 0 mm
11:29 -3.7 °C -6.6 °C 34164.7 hPa East 23.8 km/h 23.8 km/h 73 % 0 mm
11:34 -3.9 °C -6.6 °C 34198.6 hPa NE 20.9 km/h 20.9 km/h 75 % 0 mm
11:39 -4.1 °C -6.7 °C 34198.6 hPa ESE 17.9 km/h 17.9 km/h 75 % 0 mm
11:44 -4.2 °C -6.6 °C 34198.6 hPa ESE 22.5 km/h 22.5 km/h 77 % 0 mm
11:49 -4.2 °C -6.6 °C 34164.7 hPa East 23.8 km/h 23.8 km/h 77 % 0 mm
11:54 -4.4 °C -6.7 °C 34164.7 hPa ENE 29.8 km/h 29.8 km/h 78 % 0 mm
11:59 -4.4 °C -6.6 °C 34164.7 hPa ESE 26.9 km/h 26.9 km/h 79 % 0 mm
12:04 -4.4 °C -6.6 °C 34198.6 hPa NE 32.8 km/h 32.8 km/h 79 % 0 mm
12:09 -4.4 °C -6.6 °C 34198.6 hPa ENE 29.8 km/h 29.8 km/h 79 % 0 mm
12:14 -4.5 °C -6.6 °C 34198.6 hPa ESE 20.9 km/h 20.9 km/h 80 % 0 mm
12:19 -4.5 °C -6.6 °C 34198.6 hPa ENE 16.1 km/h 16.1 km/h 80 % 0 mm
12:24 -4.3 °C -6.5 °C 34198.6 hPa SE 23.8 km/h 23.8 km/h 79 % 0 mm
12:29 -4.4 °C -6.6 °C 34198.6 hPa ESE 26.9 km/h 26.9 km/h 79 % 0 mm
12:34 -4.4 °C -6.7 °C 34198.6 hPa SE 26.9 km/h 26.9 km/h 78 % 0 mm
12:36 -4.4 °C -6.7 °C 34198.6 hPa ESE 20.9 km/h 20.9 km/h 78 % 0 mm
12:41 -4.4 °C -6.7 °C 34198.6 hPa ESE 20.9 km/h 20.9 km/h 78 % 0 mm
12:46 -4.4 °C -6.8 °C 34198.6 hPa ESE 25.4 km/h 25.4 km/h 77 % 0 mm
12:51 -4.3 °C -6.7 °C 34198.6 hPa ESE 35.7 km/h 35.7 km/h 77 % 0 mm
12:56 -4.3 °C -6.7 °C 34198.6 hPa ESE 32.8 km/h 32.8 km/h 77 % 0 mm
13:01 -4.2 °C -6.7 °C 34198.6 hPa ESE 29.8 km/h 29.8 km/h 76 % 0 mm
13:06 -4.1 °C -6.6 °C 34198.6 hPa ESE 41.7 km/h 41.7 km/h 76 % 0 mm
13:11 -4 °C -6.8 °C 34198.6 hPa ESE 32.8 km/h 32.8 km/h 74 % 0 mm
13:16 -3.9 °C -6.8 °C 34198.6 hPa ESE 35.7 km/h 35.7 km/h 73 % 0 mm
13:21 -3.9 °C -6.8 °C 34198.6 hPa East 23.8 km/h 23.8 km/h 73 % 0 mm
13:26 -4.1 °C -7 °C 34198.6 hPa ESE 20.9 km/h 22 km/h 73 % 0 mm
13:31 -4.1 °C -6.8 °C 34198.6 hPa ESE 15 km/h 15 km/h 74 % 0 mm
13:36 -4.1 °C -6.8 °C 34198.6 hPa NNW 11.9 km/h 11.9 km/h 74 % 0 mm
13:41 -4.2 °C -6.9 °C 34198.6 hPa ENE 6 km/h 7.6 km/h 74 % 0 mm
13:46 -4.2 °C -7 °C 34198.6 hPa ENE 15 km/h 15 km/h 74 % 0 mm
13:51 -4.2 °C -7 °C 34198.6 hPa NNE 15 km/h 15 km/h 74 % 0 mm
13:56 -4.2 °C -6.8 °C 34198.6 hPa North 15 km/h 15 km/h 75 % 0 mm
14:01 -4.1 °C -6.7 °C 34198.6 hPa East 17.9 km/h 17.9 km/h 75 % 0 mm
14:06 -4.2 °C -7 °C 34198.6 hPa ENE 15 km/h 15 km/h 74 % 0 mm
14:11 -4.1 °C -6.7 °C 34198.6 hPa NNE 11.9 km/h 11.9 km/h 75 % 0 mm
14:16 -3.9 °C -6.8 °C 34198.6 hPa ESE 15 km/h 15 km/h 73 % 0 mm
14:21 -4 °C -6.9 °C 34198.6 hPa ESE 17.9 km/h 17.9 km/h 73 % 0 mm
14:26 -3.9 °C -6.8 °C 34198.6 hPa NNE 15 km/h 15 km/h 73 % 0 mm
14:31 -3.8 °C -6.8 °C 34198.6 hPa East 11.9 km/h 11.9 km/h 72 % 0 mm
14:36 -3.8 °C -6.8 °C 34198.6 hPa ENE 11.9 km/h 11.9 km/h 72 % 0 mm
14:41 -3.6 °C -6.8 °C 34198.6 hPa ESE 11.9 km/h 11.9 km/h 71 % 0 mm
14:46 -3.2 °C -6.4 °C 34198.6 hPa ESE 15.3 km/h 15.3 km/h 71 % 0 mm
14:51 -3.4 °C -6.7 °C 34198.6 hPa ENE 11.9 km/h 11.9 km/h 70 % 0 mm
14:56 -3.1 °C -6.5 °C 34198.6 hPa NE 20.9 km/h 20.9 km/h 69 % 0 mm
15:01 -3.1 °C -6.5 °C 34198.6 hPa NNE 11.9 km/h 11.9 km/h 69 % 0 mm
15:06 -3.1 °C -6.7 °C 34198.6 hPa ENE 20.9 km/h 20.9 km/h 68 % 0 mm
15:11 -3.2 °C -6.8 °C 34198.6 hPa ESE 17.9 km/h 17.9 km/h 67 % 0 mm
15:16 -3 °C -6.7 °C 34198.6 hPa East 11.9 km/h 11.9 km/h 67 % 0 mm
15:17 -3.1 °C -6.7 °C 34198.6 hPa ESE 19.6 km/h 19.6 km/h 67 % 0 mm
15:22 -2.9 °C -6.7 °C 34198.6 hPa NE 15 km/h 15 km/h 66 % 0 mm
15:27 -3 °C -6.9 °C 34198.6 hPa ENE 17.9 km/h 17.9 km/h 65 % 0 mm
15:32 -3.1 °C -7 °C 34198.6 hPa North 23.8 km/h 23.8 km/h 65 % 0 mm
15:37 -2.9 °C -7 °C 34198.6 hPa NNE 23.8 km/h 23.8 km/h 64 % 0 mm
15:42 -3.1 °C -7.2 °C 34198.6 hPa ENE 23.8 km/h 23.8 km/h 64 % 0 mm
15:47 -3 °C -7.1 °C 34198.6 hPa East 17.9 km/h 17.9 km/h 64 % 0 mm
15:52 -2.9 °C -7 °C 34198.6 hPa East 17.9 km/h 17.9 km/h 64 % 0 mm
15:57 -3 °C -7.1 °C 34198.6 hPa ESE 16.6 km/h 16.6 km/h 64 % 0 mm
16:02 -3.1 °C -7.3 °C 34198.6 hPa East 20.9 km/h 20.9 km/h 63 % 0 mm
16:07 -3.1 °C -7.4 °C 34198.6 hPa ENE 26.9 km/h 26.9 km/h 62 % 0 mm
16:12 -3.1 °C -7.4 °C 34198.6 hPa East 20.9 km/h 20.9 km/h 62 % 0 mm
16:17 -2.9 °C -7.4 °C 34198.6 hPa WSW 20.9 km/h 20.9 km/h 61 % 0 mm
16:22 -2.8 °C -7.5 °C 34198.6 hPa South 15 km/h 15 km/h 60 % 0 mm
16:27 -2.8 °C -7.5 °C 34198.6 hPa NNE 20.3 km/h 20.3 km/h 60 % 0 mm
16:32 -2.8 °C -7.7 °C 34198.6 hPa ESE 23.8 km/h 23.8 km/h 58 % 0 mm
16:37 -2.7 °C -7.8 °C 34198.6 hPa SE 20.9 km/h 20.9 km/h 57 % 0 mm
16:42 -2.6 °C -7.9 °C 34198.6 hPa East 23.8 km/h 23.8 km/h 56 % 0 mm
16:47 -2.7 °C -7.9 °C 34198.6 hPa ENE 29.8 km/h 29.8 km/h 56 % 0 mm
16:52 -2.7 °C -8.2 °C 34198.6 hPa SE 32.8 km/h 32.8 km/h 55 % 0 mm
16:57 -2.9 °C -8.2 °C 34198.6 hPa ESE 32.8 km/h 32.8 km/h 56 % 0 mm
16:58 -2.9 °C -8.2 °C 34198.6 hPa ESE 26.9 km/h 26.9 km/h 56 % 0 mm
17:03 -2.7 °C -8.2 °C 34198.6 hPa ESE 17.9 km/h 17.9 km/h 55 % 0 mm
17:08 -2.7 °C -8.1 °C 34198.6 hPa ENE 23.8 km/h 23.8 km/h 55 % 0 mm
17:13 -2.8 °C -8.2 °C 34198.6 hPa SE 20.9 km/h 20.9 km/h 55 % 0 mm
17:18 -2.8 °C -8.3 °C 34198.6 hPa SSE 11.9 km/h 11.9 km/h 55 % 0 mm
17:23 -2.9 °C -8.3 °C 34198.6 hPa South 20.9 km/h 20.9 km/h 55 % 0 mm
17:28 -3.1 °C -8.3 °C 34198.6 hPa SSE 23.3 km/h 23.3 km/h 56 % 0 mm
17:33 -3.1 °C -8.4 °C 34198.6 hPa East 15 km/h 15 km/h 56 % 0 mm
17:38 -3 °C -8.4 °C 34198.6 hPa South 26.9 km/h 26.9 km/h 55 % 0 mm
17:43 -3.2 °C -8.8 °C 34198.6 hPa East 23.8 km/h 23.8 km/h 54 % 0 mm
17:48 -3.3 °C -8.8 °C 34198.6 hPa SE 15 km/h 15 km/h 54 % 0 mm
17:53 -3.3 °C -9.1 °C 34198.6 hPa East 12.7 km/h 12.7 km/h 53 % 0 mm
17:58 -3.4 °C -9.1 °C 34198.6 hPa ESE 22 km/h 22 km/h 53 % 0 mm
18:03 -3.4 °C -9.3 °C 34198.6 hPa SE 23.8 km/h 23.8 km/h 52 % 0 mm
18:08 -3.5 °C -9.6 °C 34198.6 hPa East 29.8 km/h 29.8 km/h 51 % 0 mm
18:13 -3.5 °C -9.4 °C 34198.6 hPa ESE 17.9 km/h 17.9 km/h 52 % 0 mm
18:18 -3.4 °C -9.3 °C 34222.3 hPa ESE 26.9 km/h 26.9 km/h 52 % 0 mm
18:23 -3.6 °C -9.4 °C 34222.3 hPa East 26.9 km/h 26.9 km/h 52 % 0 mm
18:28 -3.6 °C -9.6 °C 34222.3 hPa ESE 17.9 km/h 17.9 km/h 51 % 0 mm
18:33 -3.6 °C -9.6 °C 34222.3 hPa East 29.8 km/h 29.8 km/h 51 % 0 mm
18:38 -3.6 °C -9.6 °C 34222.3 hPa ESE 17.9 km/h 17.9 km/h 51 % 0 mm
18:43 -3.6 °C -9.6 °C 34222.3 hPa ESE 17.9 km/h 17.9 km/h 51 % 0 mm
18:48 -3.6 °C -9.6 °C 34222.3 hPa SE 11.9 km/h 11.9 km/h 51 % 0 mm
18:53 -3.6 °C -9.6 °C 34222.3 hPa East 12.7 km/h 12.7 km/h 51 % 0 mm
18:58 -3.6 °C -9.7 °C 34222.3 hPa ENE 20.9 km/h 20.9 km/h 51 % 0 mm
19:03 -3.7 °C -9.9 °C 34256.2 hPa ESE 26.9 km/h 26.9 km/h 50 % 0 mm
19:08 -3.6 °C -9.8 °C 34256.2 hPa South 15 km/h 15 km/h 50 % 0 mm
19:13 -3.7 °C -9.9 °C 34256.2 hPa ESE 20.9 km/h 20.9 km/h 50 % 0 mm
19:18 -3.8 °C -9.8 °C 34256.2 hPa ESE 27.2 km/h 27.2 km/h 51 % 0 mm
19:23 -3.8 °C -9.8 °C 34256.2 hPa ENE 14.5 km/h 14.5 km/h 51 % 0 mm
19:28 -3.9 °C -9.9 °C 34256.2 hPa SSE 9 km/h 9 km/h 51 % 0 mm
19:33 -3.9 °C -9.9 °C 34256.2 hPa ENE 15 km/h 15 km/h 51 % 0 mm
19:38 -3.9 °C -9.8 °C 34256.2 hPa East 15 km/h 15 km/h 52 % 0 mm
19:43 -4 °C -9.7 °C 34256.2 hPa SSE 11.9 km/h 11.9 km/h 53 % 0 mm
19:48 -4 °C -9.7 °C 34256.2 hPa ESE 15 km/h 15 km/h 53 % 0 mm
19:53 -4.1 °C -9.7 °C 34256.2 hPa ESE 11.9 km/h 11.9 km/h 53 % 0 mm
19:55 -6.1 °C -9.3 °C 34361.1 hPa WSW 2.6 km/h 5.1 km/h 70 % 0 mm
19:58 -4.1 °C -9.8 °C 34256.2 hPa SE 11.9 km/h 11.9 km/h 53 % 0 mm
20:03 -4.1 °C -9.6 °C 34256.2 hPa East 11.9 km/h 11.9 km/h 54 % 0 mm
20:05 -4.2 °C -9.7 °C 34256.2 hPa SE 17.9 km/h 17.9 km/h 54 % 0 mm
20:10 -4.2 °C -9.7 °C 34256.2 hPa SE 15 km/h 15 km/h 54 % 0 mm
20:15 -4.2 °C -9.7 °C 34256.2 hPa SE 17.9 km/h 17.9 km/h 54 % 0 mm
20:20 -4.3 °C -9.6 °C 34256.2 hPa East 11.9 km/h 11.9 km/h 55 % 0 mm
20:25 -4.3 °C -9.7 °C 34256.2 hPa NE 11.9 km/h 11.9 km/h 55 % 0 mm
20:30 -4.3 °C -9.7 °C 34293.4 hPa ENE 15 km/h 15 km/h 55 % 0 mm
20:35 -4.4 °C -9.6 °C 34293.4 hPa ESE 15 km/h 15 km/h 56 % 0 mm
20:37 -4.4 °C -9.6 °C 34293.4 hPa ESE 9 km/h 9 km/h 56 % 0 mm
20:42 -4.4 °C -9.6 °C 34293.4 hPa NE 17.9 km/h 17.9 km/h 56 % 0 mm
20:45 -6.4 °C -9.3 °C 34361.1 hPa Calm   5.1 km/h 72 % 0 mm
20:47 -4.5 °C -9.4 °C 34293.4 hPa ENE 9 km/h 9 km/h 58 % 0 mm
20:52 -4.6 °C -9.4 °C 34293.4 hPa East 11.9 km/h 11.9 km/h 58 % 0 mm
20:55 -6.4 °C -9.2 °C 34361.1 hPa Calm     73 % 0 mm
20:57 -4.6 °C -9.5 °C 34293.4 hPa East 15 km/h 15 km/h 58 % 0 mm
21:02 -4.6 °C -9.3 °C 34327.3 hPa SE 9 km/h 9 km/h 59 % 0 mm
21:05 -6.5 °C -9.3 °C 34361.1 hPa East 2.6 km/h 7.7 km/h 73 % 0 mm
21:07 -4.7 °C -9.4 °C 34327.3 hPa ENE 9.3 km/h 9.3 km/h 59 % 0 mm
21:12 -4.7 °C -9.4 °C 34327.3 hPa ENE 6.8 km/h 6.8 km/h 59 % 0 mm
21:15 -6.6 °C -9.4 °C 34361.1 hPa East 5.1 km/h 7.7 km/h 73 % 0 mm
21:17 -4.7 °C -9.4 °C 34327.3 hPa ESE 6 km/h   59 % 0 mm
21:22 -4.7 °C -9.4 °C 34327.3 hPa East 15 km/h 15 km/h 59 % 0 mm
21:25 -6.7 °C -9.4 °C 34361.1 hPa ENE 2.6 km/h 7.7 km/h 74 % 0 mm
21:27 -4.8 °C -9.5 °C 34327.3 hPa East 7.6 km/h 7.6 km/h 59 % 0 mm
21:32 -4.8 °C -9.4 °C 34327.3 hPa ESE 11.9 km/h 11.9 km/h 60 % 0 mm
21:37 -4.9 °C -9.4 °C 34327.3 hPa ESE 11.9 km/h 11.9 km/h 60 % 0 mm
21:40 -6.7 °C -9.3 °C 34361.1 hPa Calm   5.1 km/h 75 % 0 mm
21:42 -4.9 °C -9.4 °C 34327.3 hPa ENE 8 km/h 8 km/h 60 % 0 mm
21:47 -4.9 °C -9.5 °C 34327.3 hPa NNE 6 km/h 6 km/h 60 % 0 mm
21:50 -6.7 °C -9.3 °C 34361.1 hPa Calm   5.1 km/h 75 % 0 mm
21:52 -5 °C -9.4 °C 34327.3 hPa ESE 9.3 km/h 9.3 km/h 61 % 0 mm
21:57 -5 °C -9.4 °C 34327.3 hPa East 6 km/h 6 km/h 61 % 0 mm
22:02 -5 °C -9.4 °C 34327.3 hPa East 9 km/h 9 km/h 61 % 0 mm
22:07 -4.9 °C -9.3 °C 34327.3 hPa East 11.9 km/h 11.9 km/h 61 % 0 mm
22:10 -6.8 °C -9.3 °C 34361.1 hPa Calm   5.1 km/h 75 % 0 mm
22:12 -4.9 °C -9.3 °C 34327.3 hPa SW 6 km/h 6 km/h 61 % 0 mm
22:17 -5 °C -9.4 °C 34327.3 hPa South 6 km/h 6 km/h 61 % 0 mm
22:20 -6.7 °C -9.3 °C 34361.1 hPa SW 2.6 km/h 5.1 km/h 75 % 0 mm
22:22 -5 °C -9.4 °C 34327.3 hPa SE 6.3 km/h 6.3 km/h 61 % 0 mm
22:27 -5 °C -9.4 °C 34327.3 hPa SSW 6 km/h   61 % 0 mm
22:30 -6.7 °C -9.4 °C 34361.1 hPa Calm   5.1 km/h 74 % 0 mm
22:32 -5.1 °C -9.4 °C 34361.1 hPa SW 3.1 km/h 3.1 km/h 61 % 0 mm
22:37 -5.2 °C -9.4 °C 34361.1 hPa SW 6 km/h 6 km/h 62 % 0 mm
22:40 -6.7 °C -9.7 °C 34361.1 hPa Calm   5.1 km/h 71 % 0 mm
22:42 -5.3 °C -9.6 °C 34361.1 hPa Calm     62 % 0 mm
22:47 -5.3 °C -9.6 °C 34327.3 hPa ENE 3.1 km/h 3.7 km/h 62 % 0 mm
22:50 -6.7 °C -9.9 °C 34361.1 hPa Calm   2.6 km/h 69 % 0 mm
22:52 -5.3 °C -9.6 °C 34327.3 hPa Calm     62 % 0 mm
22:57 -5.4 °C -9.5 °C 34327.3 hPa SW 3.1 km/h 3.1 km/h 63 % 0 mm
23:00 -6.8 °C -10.3 °C 34361.1 hPa NE 2.6 km/h 5.1 km/h 67 % 0 mm
23:02 -5.4 °C -9.5 °C 34327.3 hPa SW 6 km/h 6 km/h 63 % 0 mm
23:07 -5.4 °C -9.5 °C 34327.3 hPa Calm     63 % 0 mm
23:10 -6.7 °C -10.2 °C 34327.3 hPa East 2.6 km/h 5.1 km/h 67 % 0 mm
23:12 -5.4 °C -9.6 °C 34327.3 hPa Calm     63 % 0 mm
23:17 -5.4 °C -9.4 °C 34361.1 hPa NE 5.1 km/h 5.1 km/h 64 % 0 mm
23:20 -6.8 °C -10.3 °C 34327.3 hPa Calm   5.1 km/h 67 % 0 mm
23:22 -5.5 °C -9.5 °C 34361.1 hPa Calm     64 % 0 mm
23:27 -5.5 °C -9.5 °C 34361.1 hPa NW 3.1 km/h 3.1 km/h 64 % 0 mm
23:30 -6.8 °C -10.2 °C 34327.3 hPa NE 2.6 km/h 5.1 km/h 68 % 0 mm
23:32 -5.6 °C -9.5 °C 34361.1 hPa Calm     64 % 0 mm
23:37 -5.6 °C -9.4 °C 34361.1 hPa Calm     65 % 0 mm
23:40 -6.9 °C -10.3 °C 34327.3 hPa SW 2.6 km/h 2.6 km/h 68 % 0 mm
23:42 -5.6 °C -9.3 °C 34361.1 hPa Calm     66 % 0 mm
23:47 -5.7 °C -9.3 °C 34361.1 hPa Calm     66 % 0 mm
23:50 -6.9 °C -10.2 °C 34327.3 hPa Calm   2.6 km/h 69 % 0 mm
23:52 -5.7 °C -9.4 °C 34361.1 hPa SW 6 km/h 6 km/h 66 % 0 mm
23:57 -5.8 °C -9.4 °C 34361.1 hPa SW 3.7 km/h 3.7 km/h 66 % 0 mm
Meteo Sesrovires
Elogis d' Weather Underground - 1.5 mb

Guio original per  Jim McMurry - jmcmurry@mwt.net Adaptat per a la plantilla per  Wim van der Kuil - Leuven-Template.eu

Trobareu la nostra informacio del temps tambe a:

Weather Underground

AWEKAS